Time;durP1;ratioP1;P1;durP2;ratioP2;P2;SDS_P1;SDS_P2;PMS_P1;PMS_P2;Temp;Humidity;BMP_temperature;BMP_pressure;BME280_temperature;BME280_humidity;BME280_pressure;Samples;Min_cycle;Max_cycle;Signal;HPM_P1;HPM_P2
2024/01/06 00:01:15;;;;;;;18.27;11.88;;;6.60;99.90;;;;;;7361179;32;20226;-55
2024/01/06 00:05:17;;;;;;;16.70;11.55;;;6.60;99.90;;;;;;7361366;32;20111;-55
2024/01/06 00:09:18;;;;;;;19.42;11.75;;;6.70;99.90;;;;;;7365771;32;20145;-55
2024/01/06 00:13:20;;;;;;;18.00;11.73;;;6.60;99.90;;;;;;7360519;32;20114;-54
2024/01/06 00:17:22;;;;;;;16.10;10.88;;;6.60;99.90;;;;;;7349707;32;20125;-55
2024/01/06 00:21:24;;;;;;;16.45;11.80;;;6.60;99.90;;;;;;7361295;32;20407;-56
2024/01/06 00:25:26;;;;;;;17.55;11.07;;;6.60;99.90;;;;;;7359667;32;20130;-55
2024/01/06 00:29:27;;;;;;;18.73;12.20;;;6.70;99.90;;;;;;7368300;32;20179;-55
2024/01/06 00:33:29;;;;;;;17.33;12.23;;;6.60;99.90;;;;;;7364053;32;20423;-55
2024/01/06 00:37:31;;;;;;;18.40;12.88;;;6.60;99.90;;;;;;7358287;32;20287;-54
2024/01/06 00:41:33;;;;;;;20.75;13.05;;;6.70;99.90;;;;;;7363310;32;20289;-56
2024/01/06 00:45:34;;;;;;;20.30;13.13;;;6.70;99.90;;;;;;7358663;32;20127;-54
2024/01/06 00:49:36;;;;;;;18.87;12.68;;;6.70;99.90;;;;;;7358910;32;20121;-55
2024/01/06 00:53:38;;;;;;;17.90;12.80;;;6.60;99.90;;;;;;7363734;32;20367;-57
2024/01/06 00:57:40;;;;;;;18.85;12.82;;;6.70;99.90;;;;;;7361936;32;20167;-56
2024/01/06 01:01:42;;;;;;;22.15;14.52;;;6.70;99.90;;;;;;7360345;32;20115;-55
2024/01/06 01:05:44;;;;;;;18.23;13.60;;;6.70;99.90;;;;;;7358226;32;20115;-55
2024/01/06 01:09:46;;;;;;;21.52;13.88;;;6.70;99.90;;;;;;7359286;32;20497;-55
2024/01/06 01:13:48;;;;;;;23.87;14.27;;;6.70;99.90;;;;;;7367055;32;20640;-56
2024/01/06 01:17:49;;;;;;;20.23;13.48;;;6.80;99.90;;;;;;7364336;32;20418;-56
2024/01/06 01:21:55;;;;;;;21.60;13.95;;;6.80;99.90;;;;;;7368599;32;20649;-56
2024/01/06 01:25:57;;;;;;;23.50;15.15;;;6.80;99.90;;;;;;7367481;32;20184;-55
2024/01/06 01:29:59;;;;;;;20.33;13.88;;;6.80;99.90;;;;;;7371227;32;20561;-55
2024/01/06 01:34:01;;;;;;;24.00;15.60;;;6.80;99.90;;;;;;7367030;32;20330;-56
2024/01/06 01:38:03;;;;;;;22.55;15.23;;;6.80;99.90;;;;;;7370127;32;20644;-55
2024/01/06 01:42:05;;;;;;;24.52;15.75;;;6.90;99.90;;;;;;7367291;32;20174;-56
2024/01/06 01:46:07;;;;;;;26.17;15.40;;;6.90;99.90;;;;;;7368055;32;20098;-56
2024/01/06 01:50:11;;;;;;;23.55;15.15;;;6.90;99.90;;;;;;7360227;32;20220;-55
2024/01/06 01:54:13;;;;;;;24.45;16.27;;;6.90;99.90;;;;;;7370035;32;20498;-56
2024/01/06 01:58:16;;;;;;;23.17;15.50;;;6.90;99.90;;;;;;7351354;32;20115;-56
2024/01/06 02:02:18;;;;;;;22.60;15.18;;;6.90;99.90;;;;;;7357024;32;20352;-56
2024/01/06 02:06:20;;;;;;;25.55;16.40;;;6.90;99.90;;;;;;7365134;32;20135;-55
2024/01/06 02:10:22;;;;;;;24.58;15.70;;;6.90;99.90;;;;;;7359380;32;20117;-55
2024/01/06 02:14:24;;;;;;;25.90;16.37;;;6.90;99.90;;;;;;7375127;32;20220;-55
2024/01/06 02:18:25;;;;;;;24.67;15.32;;;6.90;99.90;;;;;;7363150;32;20194;-55
2024/01/06 02:22:27;;;;;;;22.90;15.20;;;6.90;99.90;;;;;;7365314;32;20236;-55
2024/01/06 02:26:29;;;;;;;23.48;15.43;;;6.90;99.90;;;;;;7369949;32;20133;-55
2024/01/06 02:30:31;;;;;;;27.23;16.05;;;6.80;99.90;;;;;;7349102;32;20118;-55
2024/01/06 02:34:34;;;;;;;23.27;15.48;;;6.60;99.90;;;;;;7362638;32;20152;-55
2024/01/06 02:43:39;;;;;;;21.92;14.65;;;6.70;99.90;;;;;;7354033;32;20434;-53
2024/01/06 02:47:41;;;;;;;20.80;13.35;;;6.80;99.90;;;;;;7367995;32;20107;-55
2024/01/06 02:51:43;;;;;;;21.17;13.13;;;6.80;99.90;;;;;;7358865;32;20175;-55
2024/01/06 02:55:46;;;;;;;20.05;13.27;;;6.70;99.90;;;;;;7357408;32;20099;-55
2024/01/06 02:59:48;;;;;;;20.62;13.45;;;6.70;99.90;;;;;;7362159;32;20316;-55
2024/01/06 03:03:49;;;;;;;19.50;13.27;;;6.80;99.90;;;;;;7365885;32;20107;-54
2024/01/06 03:07:51;;;;;;;22.40;14.27;;;6.70;99.90;;;;;;7357358;32;20226;-55
2024/01/06 03:11:53;;;;;;;19.62;12.52;;;6.60;99.90;;;;;;7351452;32;20115;-55
2024/01/06 03:15:55;;;;;;;20.95;14.38;;;6.60;99.90;;;;;;7360543;32;20413;-55
2024/01/06 03:19:57;;;;;;;20.52;13.40;;;6.70;99.90;;;;;;7362555;32;20117;-54
2024/01/06 03:23:59;;;;;;;26.90;14.25;;;6.70;99.90;;;;;;7364641;32;20123;-55
2024/01/06 03:28:01;;;;;;;28.92;17.92;;;6.70;99.90;;;;;;7362838;32;20121;-56
2024/01/06 03:32:03;;;;;;;27.02;17.30;;;6.80;99.90;;;;;;7354609;32;20194;-55
2024/01/06 03:36:08;;;;;;;27.27;17.17;;;6.80;99.90;;;;;;7355554;32;20111;-54
2024/01/06 03:40:10;;;;;;;27.98;16.73;;;6.70;99.90;;;;;;7364693;32;20131;-54
2024/01/06 03:44:12;;;;;;;30.65;18.60;;;6.70;99.90;;;;;;7362977;32;20171;-54
2024/01/06 03:48:14;;;;;;;29.12;16.75;;;6.70;99.90;;;;;;7338070;32;20103;-55
2024/01/06 03:52:16;;;;;;;29.77;15.40;;;6.60;99.90;;;;;;7361590;32;20237;-55
2024/01/06 03:56:18;;;;;;;26.35;14.90;;;6.40;99.90;;;;;;7361460;32;20217;-55
2024/01/06 04:00:20;;;;;;;25.27;14.93;;;6.30;99.90;;;;;;7357901;32;20655;-54
2024/01/06 04:04:22;;;;;;;26.77;15.43;;;6.10;99.90;;;;;;7359309;32;20442;-55
2024/01/06 04:08:24;;;;;;;23.62;13.45;;;6.10;99.90;;;;;;7365065;32;20175;-55
2024/01/06 04:12:25;;;;;;;22.25;12.75;;;6.10;99.90;;;;;;7363702;32;20565;-54
2024/01/06 04:16:27;;;;;;;25.85;13.07;;;6.10;99.90;;;;;;7360310;32;20149;-54
2024/01/06 04:20:30;;;;;;;22.77;12.02;;;6.10;99.90;;;;;;7355175;32;20107;-54
2024/01/06 04:24:34;;;;;;;22.52;11.57;;;6.00;99.90;;;;;;7367188;32;20197;-55
2024/01/06 04:28:36;;;;;;;22.62;10.75;;;5.80;99.90;;;;;;7356681;32;20210;-54
2024/01/06 04:32:38;;;;;;;26.37;11.50;;;5.90;99.90;;;;;;7357591;32;20118;-54
2024/01/06 04:36:39;;;;;;;18.98;10.02;;;5.80;99.90;;;;;;7360922;32;20528;-55
2024/01/06 04:40:41;;;;;;;16.90;9.10;;;5.70;99.90;;;;;;7352297;32;20521;-55
2024/01/06 04:44:43;;;;;;;16.50;9.23;;;5.70;99.90;;;;;;7354656;32;20170;-55
2024/01/06 04:48:45;;;;;;;17.08;9.65;;;5.60;99.90;;;;;;7363121;32;20104;-55
2024/01/06 04:52:47;;;;;;;16.70;9.05;;;5.60;99.90;;;;;;7354658;32;20725;-55
2024/01/06 04:56:49;;;;;;;16.60;9.48;;;5.60;99.90;;;;;;7359302;32;20130;-54
2024/01/06 05:00:52;;;;;;;16.10;9.23;;;5.60;99.90;;;;;;7354164;32;20142;-55
2024/01/06 05:04:54;;;;;;;17.40;9.63;;;5.60;99.90;;;;;;7356801;32;20396;-55
2024/01/06 05:08:56;;;;;;;15.68;9.23;;;5.40;99.90;;;;;;7361497;32;20127;-54
2024/01/06 05:12:58;;;;;;;16.77;8.73;;;5.40;99.90;;;;;;7366142;32;20252;-53
2024/01/06 05:17:00;;;;;;;17.00;8.93;;;5.50;99.90;;;;;;7355781;32;20106;-55
2024/01/06 05:21:03;;;;;;;17.87;9.05;;;5.50;99.90;;;;;;7361771;32;20107;-55
2024/01/06 05:25:05;;;;;;;18.77;9.55;;;5.40;99.90;;;;;;7357904;32;20119;-55
2024/01/06 05:29:07;;;;;;;15.55;8.60;;;5.40;99.90;;;;;;7359589;32;20527;-54
2024/01/06 05:33:15;;;;;;;19.60;9.38;;;5.30;99.90;;;;;;7357268;32;20134;-55
2024/01/06 05:37:17;;;;;;;18.73;9.80;;;5.30;99.90;;;;;;7344317;32;20510;-54
2024/01/06 05:41:19;;;;;;;18.48;9.85;;;5.40;99.90;;;;;;7353496;32;20140;-54
2024/01/06 05:45:22;;;;;;;20.65;9.27;;;5.40;99.90;;;;;;7367720;32;20949;-54
2024/01/06 05:49:24;;;;;;;16.12;8.18;;;5.40;99.90;;;;;;7354371;32;20517;-54
2024/01/06 05:53:26;;;;;;;17.70;8.90;;;5.50;99.90;;;;;;7348139;32;20126;-55
2024/01/06 05:57:29;;;;;;;16.15;7.90;;;5.40;99.90;;;;;;7360275;32;20214;-55
2024/01/06 06:01:31;;;;;;;14.48;8.10;;;5.40;99.90;;;;;;7361999;32;20171;-55
2024/01/06 06:05:33;;;;;;;17.35;8.82;;;5.40;99.90;;;;;;7353913;32;20114;-55
2024/01/06 06:09:34;;;;;;;14.32;7.90;;;5.40;99.90;;;;;;7349689;32;20119;-55
2024/01/06 06:13:40;;;;;;;16.87;8.68;;;5.30;99.90;;;;;;7357866;32;20199;-55
2024/01/06 06:17:42;;;;;;;18.25;9.68;;;5.40;99.90;;;;;;7360661;32;20279;-54
2024/01/06 06:21:44;;;;;;;17.42;9.15;;;5.40;99.90;;;;;;7358396;32;20229;-55
2024/01/06 06:25:48;;;;;;;16.98;9.00;;;5.40;99.90;;;;;;7367840;32;20649;-54
2024/01/06 06:29:50;;;;;;;16.40;8.55;;;5.40;99.90;;;;;;7361750;32;20206;-55
2024/01/06 06:33:51;;;;;;;15.30;9.02;;;5.40;99.90;;;;;;7365051;32;20229;-55
2024/01/06 06:37:53;;;;;;;21.27;10.05;;;5.40;99.90;;;;;;7361031;32;20103;-54
2024/01/06 06:41:55;;;;;;;18.55;10.30;;;5.40;99.90;;;;;;7364266;32;20107;-54
2024/01/06 06:45:57;;;;;;;19.17;10.27;;;5.40;99.90;;;;;;7358309;32;21287;-53
2024/01/06 06:49:59;;;;;;;16.85;9.80;;;5.30;99.90;;;;;;7363606;32;20212;-55
2024/01/06 06:54:01;;;;;;;16.83;10.10;;;5.20;99.90;;;;;;7365328;32;20140;-55
2024/01/06 06:58:03;;;;;;;19.85;10.73;;;5.20;99.90;;;;;;7362084;32;20455;-54
2024/01/06 07:02:05;;;;;;;18.48;9.77;;;5.20;99.90;;;;;;7352882;32;20156;-54
2024/01/06 07:06:07;;;;;;;17.98;10.32;;;5.10;99.90;;;;;;7362440;32;20133;-54
2024/01/06 07:10:09;;;;;;;20.60;12.02;;;5.20;99.90;;;;;;7359688;32;20250;-54
2024/01/06 07:14:10;;;;;;;18.85;10.57;;;5.20;99.90;;;;;;7366161;32;20130;-54
2024/01/06 07:18:12;;;;;;;19.95;10.45;;;5.20;99.90;;;;;;7359846;32;20593;-54
2024/01/06 07:22:16;;;;;;;19.17;10.38;;;5.20;99.90;;;;;;7361868;32;20187;-54
2024/01/06 07:26:18;;;;;;;21.33;11.32;;;5.20;99.90;;;;;;7366750;32;20335;-54
2024/01/06 07:30:20;;;;;;;18.65;10.48;;;5.20;99.90;;;;;;7355431;32;20199;-54
2024/01/06 07:34:21;;;;;;;18.37;9.93;;;5.20;99.90;;;;;;7362038;32;20139;-54
2024/01/06 07:38:23;;;;;;;18.37;10.50;;;5.10;99.90;;;;;;7357941;32;20671;-55
2024/01/06 07:42:25;;;;;;;18.23;10.18;;;5.10;99.90;;;;;;7363947;32;20740;-55
2024/01/06 07:46:27;;;;;;;19.62;10.85;;;5.10;99.90;;;;;;7355924;32;20486;-56
2024/01/06 07:50:28;;;;;;;20.62;10.75;;;5.10;99.90;;;;;;7362018;32;20107;-56
2024/01/06 07:54:30;;;;;;;19.40;10.68;;;5.10;99.90;;;;;;7365567;32;20107;-55
2024/01/06 07:58:32;;;;;;;19.65;10.45;;;5.10;99.90;;;;;;7357782;32;20118;-55
2024/01/06 08:02:34;;;;;;;19.35;10.18;;;5.10;99.90;;;;;;7368520;32;20587;-55
2024/01/06 08:06:36;;;;;;;21.30;11.32;;;5.10;99.90;;;;;;7363727;32;20129;-56
2024/01/06 08:10:38;;;;;;;19.92;9.45;;;5.00;99.90;;;;;;7358184;32;20160;-56
2024/01/06 08:14:40;;;;;;;18.02;10.05;;;5.00;99.90;;;;;;7360786;32;20099;-56
2024/01/06 08:18:41;;;;;;;18.17;9.23;;;5.00;99.90;;;;;;7352656;32;20103;-60
2024/01/06 08:22:43;;;;;;;23.87;10.52;;;4.80;99.90;;;;;;7354933;32;20740;-56
2024/01/06 08:26:45;;;;;;;18.67;9.93;;;4.90;99.90;;;;;;7361198;32;20154;-56
2024/01/06 08:30:47;;;;;;;17.08;8.82;;;5.00;99.90;;;;;;7360818;32;20448;-56
2024/01/06 08:34:49;;;;;;;19.25;9.40;;;5.00;99.90;;;;;;7362632;32;20198;-56
2024/01/06 08:38:51;;;;;;;16.98;9.50;;;5.00;99.90;;;;;;7362510;32;20131;-56
2024/01/06 08:42:53;;;;;;;18.48;9.45;;;4.80;99.90;;;;;;7362735;32;20123;-55
2024/01/06 08:46:54;;;;;;;17.83;9.18;;;4.90;99.90;;;;;;7362481;32;20656;-56
2024/01/06 08:50:57;;;;;;;16.15;8.55;;;5.00;99.90;;;;;;7362179;32;20653;-56
2024/01/06 08:54:59;;;;;;;18.95;9.50;;;5.00;99.90;;;;;;7336136;32;20371;-56
2024/01/06 08:59:01;;;;;;;20.95;10.27;;;4.90;99.90;;;;;;7369860;32;20107;-56
2024/01/06 09:03:03;;;;;;;21.30;10.65;;;4.90;99.90;;;;;;7364595;32;20114;-56
2024/01/06 09:07:06;;;;;;;23.55;11.40;;;5.00;99.90;;;;;;7363275;32;20469;-56
2024/01/06 09:11:07;;;;;;;24.12;11.80;;;4.90;99.90;;;;;;7361375;32;20385;-57
2024/01/06 09:15:09;;;;;;;25.98;12.50;;;5.00;99.90;;;;;;7363135;32;20204;-56
2024/01/06 09:19:11;;;;;;;24.83;12.98;;;4.80;99.90;;;;;;7360036;32;20218;-57
2024/01/06 09:23:13;;;;;;;27.75;12.73;;;4.80;99.90;;;;;;7369714;32;20442;-57
2024/01/06 09:27:15;;;;;;;32.85;13.82;;;4.90;99.90;;;;;;7363017;32;20114;-56
2024/01/06 09:31:17;;;;;;;25.33;13.35;;;4.90;99.90;;;;;;7361551;32;20119;-56
2024/01/06 09:35:19;;;;;;;26.25;13.15;;;4.90;99.90;;;;;;7364535;32;20569;-57
2024/01/06 09:39:21;;;;;;;28.50;15.30;;;4.90;99.90;;;;;;7361321;32;20143;-56
2024/01/06 09:43:23;;;;;;;29.00;14.05;;;4.70;99.90;;;;;;7365626;32;20150;-56
2024/01/06 09:47:28;;;;;;;26.40;13.93;;;4.80;99.90;;;;;;7361688;32;20152;-57
2024/01/06 09:51:30;;;;;;;27.15;13.77;;;4.80;99.90;;;;;;7364572;32;20258;-56
2024/01/06 09:55:32;;;;;;;26.67;13.23;;;4.90;99.90;;;;;;7361518;32;20111;-62
2024/01/06 09:59:36;;;;;;;31.52;15.05;;;4.80;99.90;;;;;;7362103;32;20135;-55
2024/01/06 10:03:38;;;;;;;28.55;14.95;;;4.80;99.90;;;;;;7362034;32;20099;-55
2024/01/06 10:07:44;;;;;;;34.50;16.12;;;4.70;99.90;;;;;;7361738;32;20106;-55
2024/01/06 10:11:46;;;;;;;34.58;17.60;;;4.80;99.90;;;;;;7367671;32;20151;-56
2024/01/06 10:15:48;;;;;;;31.70;17.25;;;4.80;99.90;;;;;;7362477;32;20171;-56
2024/01/06 10:19:52;;;;;;;33.47;17.00;;;4.70;99.90;;;;;;7364430;32;20191;-56
2024/01/06 10:23:54;;;;;;;37.63;18.20;;;4.60;99.90;;;;;;7364284;32;20213;-56
2024/01/06 10:27:56;;;;;;;34.13;17.30;;;4.50;99.90;;;;;;7364425;32;20211;-57
2024/01/06 10:31:58;;;;;;;31.20;16.58;;;4.60;99.90;;;;;;7363034;32;20115;-56
2024/01/06 10:36:01;;;;;;;33.22;17.10;;;4.70;99.90;;;;;;7365945;32;20804;-56
2024/01/06 10:40:15;;;;;;;31.77;15.95;;;4.60;99.90;;;;;;7365479;32;20134;-56
2024/01/06 10:44:19;;;;;;;31.45;15.93;;;4.60;99.90;;;;;;7361484;32;20241;-56
2024/01/06 10:48:23;;;;;;;27.92;14.32;;;4.60;99.90;;;;;;7364287;32;20261;-55
2024/01/06 10:52:27;;;;;;;33.50;16.00;;;4.50;99.90;;;;;;7356461;32;20624;-56
2024/01/06 10:56:40;;;;;;;30.40;15.38;;;4.30;99.90;;;;;;7363916;32;20525;-56
2024/01/06 11:00:42;;;;;;;32.10;16.42;;;4.20;99.90;;;;;;7365420;32;20208;-56
2024/01/06 11:04:48;;;;;;;29.52;15.95;;;4.30;99.90;;;;;;7355182;32;20182;-55
2024/01/06 11:09:13;;;;;;;28.70;14.48;;;4.30;99.90;;;;;;7357505;32;20122;-55
2024/01/06 11:13:22;;;;;;;28.15;14.07;;;4.40;99.90;;;;;;7360236;32;20627;-56
2024/01/06 11:17:49;;;;;;;23.67;11.43;;;4.50;99.90;;;;;;7362106;32;20554;-57
2024/01/06 11:21:51;;;;;;;;;;;4.40;99.90;;;;;;7366969;32;20120;-57
2024/01/06 11:25:53;;;;;;;18.90;10.05;;;4.50;99.90;;;;;;7361769;32;20464;-57
2024/01/06 11:29:56;;;;;;;25.02;9.93;;;4.30;99.90;;;;;;7361307;32;20230;-57
2024/01/06 11:34:18;;;;;;;16.62;10.05;;;4.30;99.90;;;;;;7356362;32;20551;-57
2024/01/06 11:38:22;;;;;;;16.20;9.48;;;4.30;99.90;;;;;;7350729;32;20251;-57
2024/01/06 11:42:32;;;;;;;16.40;9.85;;;4.30;99.90;;;;;;7346845;32;20135;-56
2024/01/06 11:46:35;;;;;;;20.75;11.00;;;4.20;99.90;;;;;;7362555;32;20770;-56
2024/01/06 11:50:39;;;;;;;20.05;10.20;;;4.20;99.90;;;;;;7346576;32;20319;-56
2024/01/06 11:54:41;;;;;;;22.65;11.57;;;4.20;99.90;;;;;;7360376;32;20099;-56
2024/01/06 11:58:46;;;;;;;21.62;12.02;;;4.10;99.90;;;;;;7365553;32;20175;-56
2024/01/06 12:02:48;;;;;;;25.00;11.52;;;4.10;99.90;;;;;;7367600;32;20516;-56
2024/01/06 12:06:49;;;;;;;24.80;11.80;;;4.00;99.90;;;;;;7362184;32;20849;-56
2024/01/06 12:11:02;;;;;;;29.08;13.90;;;4.10;99.90;;;;;;7357682;32;20165;-58
2024/01/06 12:15:05;;;;;;;28.60;13.65;;;4.10;99.90;;;;;;7361875;32;20114;-56
2024/01/06 12:19:07;;;;;;;31.27;15.05;;;4.20;99.90;;;;;;7349040;32;20126;-56
2024/01/06 12:23:09;;;;;;;33.30;15.98;;;4.10;99.90;;;;;;7369909;32;20339;-56
2024/01/06 12:27:11;;;;;;;36.03;17.17;;;4.00;99.90;;;;;;7377202;32;20111;-56
2024/01/06 12:31:13;;;;;;;34.88;16.62;;;3.70;99.90;;;;;;7370568;32;20130;-63
2024/01/06 12:35:16;;;;;;;37.70;18.55;;;3.80;99.90;;;;;;7364478;32;20106;-55
2024/01/06 12:39:18;;;;;;;38.33;19.12;;;3.80;99.90;;;;;;7367864;32;20546;-56
2024/01/06 12:43:19;;;;;;;32.92;17.23;;;3.80;99.90;;;;;;7374226;32;20772;-57
2024/01/06 12:47:21;;;;;;;34.03;16.35;;;3.80;99.90;;;;;;7373230;32;20126;-58
2024/01/06 12:51:23;;;;;;;36.00;16.75;;;3.80;99.90;;;;;;7371447;32;20133;-61
2024/01/06 12:55:25;;;;;;;35.88;17.15;;;3.80;99.90;;;;;;7371319;32;20198;-57
2024/01/06 12:59:26;;;;;;;35.55;17.02;;;3.80;99.90;;;;;;7366762;32;20188;-58
2024/01/06 13:03:28;;;;;;;41.67;17.77;;;3.80;99.90;;;;;;7370019;32;20192;-57
2024/01/06 13:07:31;;;;;;;34.40;18.23;;;3.90;99.90;;;;;;7368371;32;20732;-56
2024/01/06 13:11:35;;;;;;;36.97;17.85;;;3.70;99.90;;;;;;7368250;32;20114;-56
2024/01/06 13:15:37;;;;;;;41.50;19.65;;;3.80;99.90;;;;;;7356756;32;20233;-56
2024/01/06 13:19:39;;;;;;;37.33;19.27;;;3.70;99.90;;;;;;7363025;32;20726;-63
2024/01/06 13:23:41;;;;;;;41.15;19.50;;;3.70;99.90;;;;;;7366738;32;20116;-56
2024/01/06 13:27:43;;;;;;;38.33;18.85;;;3.70;99.90;;;;;;7354561;32;20174;-56
2024/01/06 13:31:45;;;;;;;39.60;18.50;;;3.70;99.90;;;;;;7367917;32;20348;-56
2024/01/06 13:35:47;;;;;;;44.53;20.17;;;3.60;99.90;;;;;;7357216;32;20537;-56
2024/01/06 13:39:49;;;;;;;37.13;18.45;;;3.40;99.90;;;;;;7361920;32;20562;-60
2024/01/06 13:43:51;;;;;;;42.38;19.35;;;3.50;99.90;;;;;;7360858;32;20157;-56
2024/01/06 13:47:52;;;;;;;40.00;19.62;;;3.50;99.90;;;;;;7359826;32;20599;-56
2024/01/06 13:51:54;;;;;;;39.20;19.60;;;3.50;99.90;;;;;;7358864;32;20103;-57
2024/01/06 13:55:56;;;;;;;40.90;19.05;;;3.40;99.90;;;;;;7366215;32;20107;-56
2024/01/06 13:59:58;;;;;;;33.75;17.10;;;3.40;99.90;;;;;;7362862;32;20151;-56
2024/01/06 14:04:00;;;;;;;28.48;15.02;;;3.40;99.90;;;;;;7359447;32;20197;-55
2024/01/06 14:08:02;;;;;;;29.37;13.95;;;3.30;99.90;;;;;;7355175;32;20139;-55
2024/01/06 14:12:05;;;;;;;31.60;15.07;;;3.30;99.90;;;;;;7363319;32;20103;-65
2024/01/06 14:16:08;;;;;;;30.15;16.10;;;3.40;99.90;;;;;;7363055;32;20111;-55
2024/01/06 14:20:12;;;;;;;30.02;14.65;;;3.40;99.90;;;;;;7361720;32;20253;-56
2024/01/06 14:24:14;;;;;;;28.40;12.77;;;3.30;99.90;;;;;;7360614;32;20137;-53
2024/01/06 14:28:16;;;;;;;25.45;12.45;;;3.40;99.90;;;;;;7359477;32;20095;-56
2024/01/06 14:32:17;;;;;;;26.58;15.35;;;3.40;99.90;;;;;;7357181;32;20497;-56
2024/01/06 14:36:19;;;;;;;33.95;17.00;;;3.40;99.90;;;;;;7357952;32;20205;-56
2024/01/06 14:40:21;;;;;;;31.00;17.95;;;3.30;99.90;;;;;;7358983;32;20382;-56
2024/01/06 14:44:24;;;;;;;36.05;16.45;;;3.30;99.90;;;;;;7361910;32;20302;-56
2024/01/06 14:48:26;;;;;;;30.83;16.37;;;3.20;99.90;;;;;;7363695;32;20186;-56
2024/01/06 14:52:28;;;;;;;28.85;14.95;;;3.20;99.90;;;;;;7360621;32;20111;-55
2024/01/06 14:56:32;;;;;;;27.37;14.48;;;3.20;99.90;;;;;;7353687;32;20190;-56
2024/01/06 15:00:36;;;;;;;27.70;14.32;;;3.30;99.90;;;;;;7357206;32;20149;-57
2024/01/06 15:04:38;;;;;;;24.20;12.70;;;3.30;99.90;;;;;;7363378;32;20120;-55
2024/01/06 15:08:40;;;;;;;21.85;10.85;;;3.30;99.90;;;;;;7343640;32;20289;-56
2024/01/06 15:12:42;;;;;;;21.10;11.65;;;3.30;99.90;;;;;;7366072;32;20103;-57
2024/01/06 15:16:44;;;;;;;21.67;10.27;;;3.30;99.90;;;;;;7362124;32;20220;-56
2024/01/06 15:20:46;;;;;;;18.37;10.38;;;3.10;99.90;;;;;;7357265;32;20566;-57
2024/01/06 15:24:48;;;;;;;23.02;10.75;;;3.10;99.90;;;;;;7359825;32;20104;-57
2024/01/06 15:29:00;;;;;;;21.17;10.90;;;3.10;99.90;;;;;;7349361;32;20095;-56
2024/01/06 15:33:02;;;;;;;18.90;11.00;;;3.10;99.90;;;;;;7359036;32;20538;-58
2024/01/06 15:37:04;;;;;;;19.90;10.85;;;3.10;99.90;;;;;;7352756;32;20172;-56
2024/01/06 15:41:06;;;;;;;24.42;12.82;;;3.00;99.90;;;;;;7354453;32;20099;-56
2024/01/06 15:45:15;;;;;;;20.67;11.77;;;3.00;99.90;;;;;;7357964;32;20173;-55
2024/01/06 15:49:18;;;;;;;23.10;11.85;;;2.90;99.90;;;;;;7360715;32;20350;-56
2024/01/06 15:53:20;;;;;;;24.73;13.88;;;2.90;99.90;;;;;;7355915;32;20218;-55
2024/01/06 15:57:22;;;;;;;25.05;13.52;;;2.90;99.90;;;;;;7353140;32;20232;-56
2024/01/06 16:01:24;;;;;;;23.92;13.45;;;2.90;99.90;;;;;;7361180;32;20173;-56
2024/01/06 16:05:26;;;;;;;27.10;14.07;;;2.90;99.90;;;;;;7356841;32;20095;-56
2024/01/06 16:09:28;;;;;;;27.23;14.85;;;3.00;99.90;;;;;;7360061;32;20152;-56
2024/01/06 16:13:30;;;;;;;28.35;15.85;;;2.80;99.90;;;;;;7359639;32;20193;-56
2024/01/06 16:17:33;;;;;;;28.65;14.25;;;2.80;99.90;;;;;;7359417;32;20111;-56
2024/01/06 16:21:35;;;;;;;28.25;15.38;;;2.90;99.90;;;;;;7364237;32;20126;-55
2024/01/06 16:25:38;;;;;;;29.33;16.30;;;2.90;99.90;;;;;;7358398;32;20201;-56
2024/01/06 16:29:40;;;;;;;31.58;16.77;;;2.80;99.90;;;;;;7364877;32;20208;-55
2024/01/06 16:33:41;;;;;;;27.52;15.95;;;2.80;99.90;;;;;;7358652;32;20103;-55
2024/01/06 16:37:43;;;;;;;31.98;15.98;;;2.80;99.90;;;;;;7359771;32;20544;-56
2024/01/06 16:41:45;;;;;;;32.50;16.45;;;2.80;99.90;;;;;;7367329;32;20122;-56
2024/01/06 16:45:47;;;;;;;31.08;16.85;;;2.80;99.90;;;;;;7363355;32;20133;-55
2024/01/06 16:49:49;;;;;;;30.17;15.95;;;2.50;99.90;;;;;;7364677;32;20289;-55
2024/01/06 16:53:52;;;;;;;30.77;16.60;;;2.60;99.90;;;;;;7365462;32;20190;-55
2024/01/06 16:57:59;;;;;;;32.47;17.95;;;2.70;99.90;;;;;;7350406;32;20175;-57
2024/01/06 17:02:02;;;;;;;;;;;2.70;99.90;;;;;;7357294;32;20266;-55
2024/01/06 17:06:04;;;;;;;31.65;16.65;;;2.60;99.90;;;;;;7356006;32;20014;-56
2024/01/06 17:10:07;;;;;;;32.17;15.77;;;2.60;99.90;;;;;;7368075;32;20265;-55
2024/01/06 17:14:09;;;;;;;28.17;14.45;;;2.70;99.90;;;;;;7369726;32;20118;-56
2024/01/06 17:18:10;;;;;;;32.33;16.15;;;2.70;99.90;;;;;;7365061;32;20157;-54
2024/01/06 17:22:12;;;;;;;32.50;15.05;;;2.60;99.90;;;;;;7365891;32;20135;-56
2024/01/06 17:26:14;;;;;;;34.72;15.05;;;2.60;99.90;;;;;;7364807;32;20229;-56
2024/01/06 17:30:17;;;;;;;27.98;14.63;;;2.60;99.90;;;;;;7367384;32;20528;-55
2024/01/06 17:34:19;;;;;;;23.98;14.05;;;2.60;99.90;;;;;;7359333;32;20127;-56
2024/01/06 17:38:21;;;;;;;26.90;15.23;;;2.60;99.90;;;;;;7366012;32;20618;-55
2024/01/06 17:42:26;;;;;;;26.10;14.52;;;2.70;99.90;;;;;;7360952;32;20102;-56
2024/01/06 17:46:28;;;;;;;22.37;12.98;;;2.80;99.90;;;;;;7359649;32;20214;-55
2024/01/06 17:50:30;;;;;;;21.95;12.85;;;2.70;99.90;;;;;;7368369;32;20111;-57
2024/01/06 17:54:32;;;;;;;28.30;14.40;;;2.60;99.90;;;;;;7367297;32;20126;-56
2024/01/06 17:58:33;;;;;;;24.48;13.88;;;2.60;99.90;;;;;;7365623;32;20182;-57
2024/01/06 18:02:35;;;;;;;23.95;13.95;;;2.60;99.90;;;;;;7359988;32;20630;-55
2024/01/06 18:06:42;;;;;;;23.02;13.82;;;2.70;99.90;;;;;;7362293;32;20094;-56
2024/01/06 18:10:44;;;;;;;23.55;13.27;;;2.70;99.90;;;;;;7362742;32;20107;-56
2024/01/06 18:14:46;;;;;;;26.30;14.40;;;2.70;99.90;;;;;;7366011;32;20102;-55
2024/01/06 18:18:48;;;;;;;24.37;14.02;;;2.70;99.90;;;;;;7362151;32;20129;-55
2024/01/06 18:22:51;;;;;;;26.55;15.18;;;2.70;99.90;;;;;;7361945;32;20221;-56
2024/01/06 18:26:52;;;;;;;25.52;14.82;;;2.60;99.90;;;;;;7358572;32;20129;-57
2024/01/06 18:30:54;;;;;;;24.60;15.10;;;2.60;99.90;;;;;;7360188;32;20127;-56
2024/01/06 18:34:56;;;;;;;27.05;16.37;;;2.60;99.90;;;;;;7362983;32;20395;-56
2024/01/06 18:38:58;;;;;;;26.25;16.15;;;2.70;99.90;;;;;;7360674;32;20163;-57
2024/01/06 18:42:59;;;;;;;28.08;15.63;;;2.70;99.90;;;;;;7361922;32;20263;-57
2024/01/06 18:47:08;;;;;;;25.58;15.95;;;2.70;99.90;;;;;;7362030;32;20521;-57
2024/01/06 18:51:10;;;;;;;30.23;16.02;;;2.60;99.90;;;;;;7362029;32;20210;-57
2024/01/06 18:55:14;;;;;;;27.87;16.45;;;2.70;99.90;;;;;;7360511;32;20253;-57
2024/01/06 18:59:16;;;;;;;29.05;15.55;;;2.70;99.90;;;;;;7357708;32;20103;-56
2024/01/06 19:03:18;;;;;;;30.08;16.50;;;2.80;99.90;;;;;;7361449;32;20755;-56
2024/01/06 19:07:21;;;;;;;27.73;16.45;;;2.70;99.90;;;;;;7366138;32;20095;-56
2024/01/06 19:11:23;;;;;;;31.77;16.73;;;2.60;99.90;;;;;;7367654;32;20138;-57
2024/01/06 19:15:24;;;;;;;29.33;16.40;;;2.60;99.90;;;;;;7353664;32;20256;-55
2024/01/06 19:19:26;;;;;;;30.37;15.27;;;2.70;99.90;;;;;;7367736;32;20243;-58
2024/01/06 19:23:29;;;;;;;29.70;16.33;;;2.80;99.90;;;;;;7357565;32;20191;-58
2024/01/06 19:27:32;;;;;;;32.60;17.20;;;2.90;99.90;;;;;;7360812;32;20107;-60
2024/01/06 19:31:35;;;;;;;35.65;17.77;;;2.70;99.90;;;;;;7356124;32;20123;-57
2024/01/06 19:35:39;;;;;;;32.47;17.60;;;2.70;99.90;;;;;;7365904;32;20135;-54
2024/01/06 19:39:40;;;;;;;33.65;19.30;;;2.70;99.90;;;;;;7359233;32;20156;-56
2024/01/06 19:43:42;;;;;;;33.83;18.52;;;2.70;99.90;;;;;;7356475;32;20769;-58
2024/01/06 19:47:44;;;;;;;35.10;19.05;;;2.70;99.90;;;;;;7359465;32;20246;-56
2024/01/06 19:51:48;;;;;;;34.25;18.73;;;2.60;99.90;;;;;;7359498;32;20131;-54
2024/01/06 19:55:50;;;;;;;36.22;18.58;;;2.70;99.90;;;;;;7356636;32;20244;-55
2024/01/06 19:59:52;;;;;;;33.80;19.15;;;2.80;99.90;;;;;;7358756;32;20254;-55
2024/01/06 20:03:54;;;;;;;36.45;19.85;;;2.70;99.90;;;;;;7358483;32;20137;-56
2024/01/06 20:07:56;;;;;;;35.15;19.92;;;2.70;99.90;;;;;;7355766;32;20578;-55
2024/01/06 20:11:58;;;;;;;35.88;20.65;;;2.70;99.90;;;;;;7357916;32;20421;-55
2024/01/06 20:16:01;;;;;;;38.63;21.10;;;2.80;99.90;;;;;;7354104;32;20329;-55
2024/01/06 20:20:03;;;;;;;35.83;20.12;;;2.70;99.90;;;;;;7360956;32;20299;-56
2024/01/06 20:24:05;;;;;;;47.45;22.45;;;2.70;99.90;;;;;;7356437;32;20154;-56
2024/01/06 20:28:07;;;;;;;39.35;21.45;;;2.70;99.90;;;;;;7358241;32;20133;-56
2024/01/06 20:32:09;;;;;;;42.85;22.95;;;2.60;99.90;;;;;;7359486;32;20600;-57
2024/01/06 20:36:13;;;;;;;43.92;23.27;;;2.70;99.90;;;;;;7361214;32;20119;-57
2024/01/06 20:40:15;;;;;;;45.38;23.10;;;2.70;99.90;;;;;;7364148;32;20230;-56
2024/01/06 20:44:17;;;;;;;42.15;22.73;;;2.80;99.90;;;;;;7364574;32;20135;-57
2024/01/06 20:48:19;;;;;;;42.03;22.60;;;2.70;99.90;;;;;;7362609;32;20099;-57
2024/01/06 20:52:20;;;;;;;44.40;22.77;;;2.70;99.90;;;;;;7369300;32;20107;-56